Time;durP1;ratioP1;P1;durP2;ratioP2;P2;SDS_P1;SDS_P2;PMS_P1;PMS_P2;Temp;Humidity;BMP_temperature;BMP_pressure;BME280_temperature;BME280_humidity;BME280_pressure;Samples;Min_cycle;Max_cycle;Signal;HPM_P1;HPM_P2
2023/08/02 00:00:57;;;;;;;2.47;1.02;;;;;;;;;;5015665;28;20022;-83
2023/08/02 00:03:23;;;;;;;2.72;1.15;;;;;;;;;;5037422;28;20033;-83
2023/08/02 00:05:56;;;;;;;3.28;1.23;;;;;;;;;;5037289;28;20148;-82
2023/08/02 00:08:22;;;;;;;2.22;1.40;;;;;;;;;;5026613;28;20033;-83
2023/08/02 00:10:47;;;;;;;2.83;1.20;;;;;;;;;;5036630;28;20041;-82
2023/08/02 00:13:13;;;;;;;4.35;1.50;;;;;;;;;;5038452;28;20056;-83
2023/08/02 00:15:38;;;;;;;2.00;1.40;;;;;;;;;;5037667;28;20041;-83
2023/08/02 00:18:04;;;;;;;2.80;1.00;;;;;;;;;;5037757;28;20033;-82
2023/08/02 00:20:29;;;;;;;6.57;1.92;;;;;;;;;;5037612;28;20027;-83
2023/08/02 00:22:55;;;;;;;3.10;1.38;;;;;;;;;;5037602;28;20674;-83
2023/08/02 00:25:21;;;;;;;5.30;1.70;;;;;;;;;;5037791;28;20040;-83
2023/08/02 00:27:46;;;;;;;3.72;1.50;;;;;;;;;;5037781;28;20487;-83
2023/08/02 00:30:11;;;;;;;3.42;1.85;;;;;;;;;;5037410;28;20047;-83
2023/08/02 00:32:44;;;;;;;3.13;1.30;;;;;;;;;;5037731;28;20108;-82
2023/08/02 00:35:09;;;;;;;4.60;1.40;;;;;;;;;;5035746;28;20025;-83
2023/08/02 00:41:04;;;;;;;2.63;1.65;;;;;;;;;;5026173;28;20041;-83
2023/08/02 00:43:29;;;;;;;3.25;1.40;;;;;;;;;;5038256;28;20033;-83
2023/08/02 00:45:56;;;;;;;4.35;1.67;;;;;;;;;;5030072;28;20025;-83
2023/08/02 00:48:21;;;;;;;2.97;1.20;;;;;;;;;;5030316;28;20032;-83
2023/08/02 00:50:47;;;;;;;4.50;1.45;;;;;;;;;;5035131;28;20029;-83
2023/08/02 00:53:12;;;;;;;2.45;1.33;;;;;;;;;;5033414;28;20036;-83
2023/08/02 00:55:38;;;;;;;4.20;1.50;;;;;;;;;;5040038;28;20060;-83
2023/08/02 00:58:04;;;;;;;2.53;1.40;;;;;;;;;;5015851;28;20667;-83
2023/08/02 01:00:29;;;;;;;3.92;1.17;;;;;;;;;;5037288;28;20495;-83
2023/08/02 01:02:55;;;;;;;4.72;1.10;;;;;;;;;;5036478;28;20029;-83
2023/08/02 01:05:25;;;;;;;4.05;2.08;;;;;;;;;;5036356;28;20026;-83
2023/08/02 01:08:03;;;;;;;3.20;1.23;;;;;;;;;;5036267;28;20049;-85
2023/08/02 01:10:34;;;;;;;2.15;1.60;;;;;;;;;;5037147;28;20049;-85
2023/08/02 01:13:04;;;;;;;1.63;1.20;;;;;;;;;;5040216;28;20021;-84
2023/08/02 01:15:31;;;;;;;2.13;1.33;;;;;;;;;;5036136;28;20674;-83
2023/08/02 01:17:58;;;;;;;2.47;1.48;;;;;;;;;;5037678;28;20053;-84
2023/08/02 01:20:23;;;;;;;2.95;1.30;;;;;;;;;;5030686;28;20040;-83
2023/08/02 01:22:48;;;;;;;1.42;1.33;;;;;;;;;;5036091;28;20025;-83
2023/08/02 01:25:14;;;;;;;3.20;1.67;;;;;;;;;;5039112;28;20490;-84
2023/08/02 01:27:50;;;;;;;4.93;1.63;;;;;;;;;;5020484;28;20446;-84
2023/08/02 01:30:18;;;;;;;1.98;1.48;;;;;;;;;;5040973;28;20021;-84
2023/08/02 01:32:44;;;;;;;1.58;1.40;;;;;;;;;;5040927;28;20032;-84
2023/08/02 01:35:10;;;;;;;4.25;1.23;;;;;;;;;;5041728;28;20029;-84
2023/08/02 01:37:35;;;;;;;1.50;1.02;;;;;;;;;;5042380;28;20469;-84
2023/08/02 01:40:02;;;;;;;2.88;1.65;;;;;;;;;;5041013;28;20135;-83
2023/08/02 01:42:27;;;;;;;3.75;1.70;;;;;;;;;;5036859;28;20028;-83
2023/08/02 01:44:53;;;;;;;2.78;1.70;;;;;;;;;;5041102;28;20037;-83
2023/08/02 01:47:18;;;;;;;5.50;1.50;;;;;;;;;;5030108;28;20030;-83
2023/08/02 01:49:44;;;;;;;4.10;1.55;;;;;;;;;;5035335;28;20049;-83
2023/08/02 01:52:09;;;;;;;1.92;1.40;;;;;;;;;;5034704;28;20025;-83
2023/08/02 01:54:35;;;;;;;1.85;1.50;;;;;;;;;;5034699;28;20061;-82
2023/08/02 01:57:00;;;;;;;1.83;1.27;;;;;;;;;;5034883;28;20033;-83
2023/08/02 01:59:25;;;;;;;1.77;1.50;;;;;;;;;;5028418;28;20041;-83
2023/08/02 02:01:51;;;;;;;2.33;1.63;;;;;;;;;;5033704;28;20031;-83
2023/08/02 02:04:16;;;;;;;1.77;1.40;;;;;;;;;;5037122;28;20031;-81
2023/08/02 02:06:41;;;;;;;3.95;1.75;;;;;;;;;;5032415;28;20025;-82
2023/08/02 02:09:07;;;;;;;2.22;1.58;;;;;;;;;;5039362;28;20050;-83
2023/08/02 02:11:32;;;;;;;3.17;1.92;;;;;;;;;;5038639;28;20045;-82
2023/08/02 02:13:57;;;;;;;2.20;1.27;;;;;;;;;;5021536;28;20069;-83
2023/08/02 02:16:22;;;;;;;4.50;1.38;;;;;;;;;;5033012;28;20179;-83
2023/08/02 02:18:48;;;;;;;2.25;1.42;;;;;;;;;;5039678;28;20076;-83
2023/08/02 02:21:13;;;;;;;1.58;1.08;;;;;;;;;;5038478;28;20092;-82
2023/08/02 02:23:38;;;;;;;3.30;1.60;;;;;;;;;;5038512;28;20048;-82
2023/08/02 02:26:04;;;;;;;2.75;1.20;;;;;;;;;;5035308;28;20093;-83
2023/08/02 02:28:29;;;;;;;3.17;1.40;;;;;;;;;;5017466;28;20113;-83
2023/08/02 02:30:56;;;;;;;4.15;1.50;;;;;;;;;;5037486;28;20038;-83
2023/08/02 02:33:22;;;;;;;3.53;1.60;;;;;;;;;;5038832;28;20724;-82
2023/08/02 02:35:47;;;;;;;3.65;1.65;;;;;;;;;;5033147;28;20324;-82
2023/08/02 02:38:12;;;;;;;1.92;1.20;;;;;;;;;;5021295;28;20040;-82
2023/08/02 02:40:38;;;;;;;2.88;1.52;;;;;;;;;;5038928;28;20030;-83
2023/08/02 02:43:03;;;;;;;3.55;1.17;;;;;;;;;;5038431;28;20529;-82
2023/08/02 02:45:28;;;;;;;2.45;1.38;;;;;;;;;;5039322;28;20047;-83
2023/08/02 02:47:53;;;;;;;1.48;1.10;;;;;;;;;;5034643;28;20021;-83
2023/08/02 02:50:19;;;;;;;2.90;1.38;;;;;;;;;;5040243;28;20033;-82
2023/08/02 02:52:44;;;;;;;1.98;1.23;;;;;;;;;;5035159;28;20025;-81
2023/08/02 02:55:09;;;;;;;3.47;1.50;;;;;;;;;;5032134;28;20037;-83
2023/08/02 02:57:35;;;;;;;2.13;1.17;;;;;;;;;;5031567;28;20096;-82
2023/08/02 03:00:00;;;;;;;3.28;1.17;;;;;;;;;;5036967;28;20495;-82
2023/08/02 03:02:26;;;;;;;1.98;1.27;;;;;;;;;;5034438;28;20041;-83
2023/08/02 03:04:51;;;;;;;2.15;1.30;;;;;;;;;;5032808;28;20018;-82
2023/08/02 03:07:16;;;;;;;3.60;1.52;;;;;;;;;;5037703;28;20033;-82
2023/08/02 03:09:42;;;;;;;2.22;1.17;;;;;;;;;;5039059;28;20498;-82
2023/08/02 03:12:08;;;;;;;3.70;1.60;;;;;;;;;;5038351;28;20036;-82
2023/08/02 03:14:33;;;;;;;6.68;1.13;;;;;;;;;;5037575;28;20028;-82
2023/08/02 03:16:59;;;;;;;2.00;1.25;;;;;;;;;;5039669;28;20026;-82
2023/08/02 03:19:24;;;;;;;2.20;1.27;;;;;;;;;;5037797;28;20033;-83
2023/08/02 03:21:49;;;;;;;2.78;1.52;;;;;;;;;;5032663;28;20080;-83
2023/08/02 03:24:15;;;;;;;2.53;1.30;;;;;;;;;;5030100;28;20060;-83
2023/08/02 03:26:40;;;;;;;1.55;1.33;;;;;;;;;;5038614;28;20079;-82
2023/08/02 03:29:05;;;;;;;3.30;1.30;;;;;;;;;;5038065;28;20086;-83
2023/08/02 03:31:31;;;;;;;4.28;1.40;;;;;;;;;;5037513;28;20025;-82
2023/08/02 03:33:56;;;;;;;1.40;1.20;;;;;;;;;;5034447;28;20071;-81
2023/08/02 03:36:21;;;;;;;1.75;1.20;;;;;;;;;;5033587;28;20033;-83
2023/08/02 03:38:47;;;;;;;3.40;1.60;;;;;;;;;;5036716;28;20390;-83
2023/08/02 03:41:12;;;;;;;0.85;0.85;;;;;;;;;;5036612;28;20014;-82
2023/08/02 03:43:37;;;;;;;1.45;1.10;;;;;;;;;;5037569;28;20024;-83
2023/08/02 03:46:03;;;;;;;1.98;1.23;;;;;;;;;;5018880;28;20549;-82
2023/08/02 03:48:28;;;;;;;2.90;1.13;;;;;;;;;;5036035;28;20025;-83
2023/08/02 03:50:57;;;;;;;1.75;1.20;;;;;;;;;;5036715;28;20025;-84
2023/08/02 03:53:23;;;;;;;3.33;1.15;;;;;;;;;;5016126;28;20039;-84
2023/08/02 03:55:49;;;;;;;3.10;1.48;;;;;;;;;;5036522;28;20026;-84
2023/08/02 03:58:14;;;;;;;1.88;1.40;;;;;;;;;;5035768;28;20083;-83
2023/08/02 04:00:39;;;;;;;1.67;1.40;;;;;;;;;;5037133;28;20048;-83
2023/08/02 04:03:05;;;;;;;3.20;1.58;;;;;;;;;;5035494;28;20029;-83
2023/08/02 04:05:30;;;;;;;2.42;1.00;;;;;;;;;;5018757;28;20029;-83
2023/08/02 04:07:55;;;;;;;2.70;1.38;;;;;;;;;;5024150;28;20022;-83
2023/08/02 04:10:21;;;;;;;2.28;1.30;;;;;;;;;;5043348;28;20033;-83
2023/08/02 04:12:46;;;;;;;2.25;1.33;;;;;;;;;;5042492;28;20025;-83
2023/08/02 04:15:11;;;;;;;3.40;1.90;;;;;;;;;;5050615;28;20069;-83
2023/08/02 04:17:37;;;;;;;3.10;1.45;;;;;;;;;;5050025;28;20072;-82
2023/08/02 04:20:02;;;;;;;1.67;1.17;;;;;;;;;;5048921;28;20029;-83
2023/08/02 04:22:31;;;;;;;1.38;1.27;;;;;;;;;;5049344;28;20026;-83
2023/08/02 04:24:57;;;;;;;2.30;1.42;;;;;;;;;;5049811;28;20017;-82
2023/08/02 04:27:22;;;;;;;1.83;1.38;;;;;;;;;;5046314;28;20034;-83
2023/08/02 04:29:48;;;;;;;1.67;1.45;;;;;;;;;;5048976;28;20383;-84
2023/08/02 04:32:13;;;;;;;2.72;1.15;;;;;;;;;;5040090;28;20026;-83
2023/08/02 04:34:39;;;;;;;3.03;1.70;;;;;;;;;;5019863;28;20407;-83
2023/08/02 04:37:05;;;;;;;2.55;1.55;;;;;;;;;;5028081;28;20029;-83
2023/08/02 04:39:30;;;;;;;2.35;1.40;;;;;;;;;;5039687;28;20033;-84
2023/08/02 04:41:55;;;;;;;1.55;1.40;;;;;;;;;;5037656;28;20029;-84
2023/08/02 04:44:21;;;;;;;1.80;1.38;;;;;;;;;;5021829;28;20033;-84
2023/08/02 04:46:46;;;;;;;2.90;1.40;;;;;;;;;;5038548;28;20028;-83
2023/08/02 04:49:11;;;;;;;3.85;1.75;;;;;;;;;;5032846;28;20021;-84
2023/08/02 04:51:38;;;;;;;3.88;1.60;;;;;;;;;;5032175;28;20021;-84
2023/08/02 04:54:04;;;;;;;2.38;1.30;;;;;;;;;;5036335;28;20021;-84
2023/08/02 04:56:29;;;;;;;4.88;1.75;;;;;;;;;;5040444;28;20039;-84
2023/08/02 04:58:55;;;;;;;2.35;1.70;;;;;;;;;;5032441;28;20037;-84
2023/08/02 05:01:20;;;;;;;2.53;1.63;;;;;;;;;;5041765;28;20052;-84
2023/08/02 05:03:46;;;;;;;3.33;1.70;;;;;;;;;;5043532;28;20052;-84
2023/08/02 05:06:11;;;;;;;2.65;1.63;;;;;;;;;;5044405;28;20025;-84
2023/08/02 05:08:37;;;;;;;1.92;1.65;;;;;;;;;;5044418;28;20029;-84
2023/08/02 05:11:06;;;;;;;3.85;1.80;;;;;;;;;;5044497;28;20018;-84
2023/08/02 05:13:31;;;;;;;2.38;1.70;;;;;;;;;;5021040;28;20033;-83
2023/08/02 05:15:56;;;;;;;3.75;1.85;;;;;;;;;;5041776;28;20084;-84
2023/08/02 05:18:22;;;;;;;2.05;1.35;;;;;;;;;;5045686;28;20049;-84
2023/08/02 05:20:47;;;;;;;2.28;1.73;;;;;;;;;;5026980;28;20064;-84
2023/08/02 05:23:13;;;;;;;1.88;1.70;;;;;;;;;;5044683;28;20482;-85
2023/08/02 05:25:38;;;;;;;2.45;1.70;;;;;;;;;;5045624;28;20021;-84
2023/08/02 05:28:04;;;;;;;2.80;1.95;;;;;;;;;;5043394;28;20060;-85
2023/08/02 05:30:31;;;;;;;2.03;1.83;;;;;;;;;;5045664;28;20402;-84
2023/08/02 05:32:57;;;;;;;3.72;1.88;;;;;;;;;;5019309;28;20033;-84
2023/08/02 05:35:23;;;;;;;4.47;2.08;;;;;;;;;;5025906;28;20446;-84
2023/08/02 05:37:49;;;;;;;14.38;2.13;;;;;;;;;;5041933;28;20063;-85
2023/08/02 05:40:14;;;;;;;5.70;2.13;;;;;;;;;;5044074;28;20026;-84
2023/08/02 05:42:40;;;;;;;14.50;2.22;;;;;;;;;;5043794;28;20026;-84
2023/08/02 05:45:06;;;;;;;3.83;1.88;;;;;;;;;;5043617;28;20021;-85
2023/08/02 05:47:31;;;;;;;8.65;2.25;;;;;;;;;;5025737;28;20051;-84
2023/08/02 05:49:57;;;;;;;3.30;1.60;;;;;;;;;;5044347;28;20026;-84
2023/08/02 05:52:22;;;;;;;6.10;2.20;;;;;;;;;;5021876;28;20034;-84
2023/08/02 05:54:47;;;;;;;3.83;2.00;;;;;;;;;;5023161;28;20595;-84
2023/08/02 05:57:13;;;;;;;3.13;2.10;;;;;;;;;;5041868;28;20029;-83
2023/08/02 05:59:38;;;;;;;8.23;2.30;;;;;;;;;;5024759;28;20108;-84
2023/08/02 06:02:05;;;;;;;3.22;1.98;;;;;;;;;;5038281;28;20052;-84
2023/08/02 06:04:34;;;;;;;4.32;2.50;;;;;;;;;;5026903;28;20033;-84
2023/08/02 06:06:59;;;;;;;6.15;1.92;;;;;;;;;;5037684;28;20025;-84
2023/08/02 06:09:25;;;;;;;4.75;2.33;;;;;;;;;;5025216;28;20029;-83
2023/08/02 06:11:50;;;;;;;5.40;2.45;;;;;;;;;;5025133;28;20036;-83
2023/08/02 06:14:15;;;;;;;3.67;2.38;;;;;;;;;;5043251;28;20034;-84
2023/08/02 06:16:41;;;;;;;4.85;2.70;;;;;;;;;;5026498;28;20030;-84
2023/08/02 06:19:06;;;;;;;3.15;2.20;;;;;;;;;;5042946;28;20025;-84
2023/08/02 06:21:32;;;;;;;3.63;2.10;;;;;;;;;;5044706;28;20047;-83
2023/08/02 06:23:58;;;;;;;4.70;2.17;;;;;;;;;;5041948;28;20057;-85
2023/08/02 06:26:23;;;;;;;5.75;2.10;;;;;;;;;;5045898;28;20033;-85
2023/08/02 06:28:48;;;;;;;3.10;2.22;;;;;;;;;;5046629;28;20022;-83
2023/08/02 06:31:14;;;;;;;4.18;2.75;;;;;;;;;;5046388;28;20025;-84
2023/08/02 06:33:39;;;;;;;3.88;2.15;;;;;;;;;;5045220;28;20136;-84
2023/08/02 06:36:04;;;;;;;5.50;2.40;;;;;;;;;;5042187;28;20029;-84
2023/08/02 06:38:32;;;;;;;3.67;2.33;;;;;;;;;;5040274;28;20147;-83
2023/08/02 06:40:57;;;;;;;4.97;2.28;;;;;;;;;;5041634;28;20060;-83
2023/08/02 06:43:22;;;;;;;5.40;2.40;;;;;;;;;;5040957;28;20045;-83
2023/08/02 06:45:48;;;;;;;3.25;2.42;;;;;;;;;;5042366;28;20021;-83
2023/08/02 06:48:17;;;;;;;6.88;2.78;;;;;;;;;;5043187;28;20151;-84
2023/08/02 06:50:42;;;;;;;5.30;2.78;;;;;;;;;;5041892;28;20182;-84
2023/08/02 06:53:08;;;;;;;5.30;2.40;;;;;;;;;;5043195;28;20022;-84
2023/08/02 06:55:33;;;;;;;3.40;2.22;;;;;;;;;;5042689;28;20025;-83
2023/08/02 06:57:58;;;;;;;5.30;2.65;;;;;;;;;;5042924;28;20033;-84
2023/08/02 07:00:24;;;;;;;5.85;2.63;;;;;;;;;;5042201;28;20034;-83
2023/08/02 07:02:49;;;;;;;3.58;2.60;;;;;;;;;;5040033;28;20032;-83
2023/08/02 07:05:14;;;;;;;3.88;2.50;;;;;;;;;;5042669;28;20040;-83
2023/08/02 07:07:39;;;;;;;4.15;2.67;;;;;;;;;;5043242;28;20052;-83
2023/08/02 07:10:05;;;;;;;4.47;2.85;;;;;;;;;;5044220;28;20029;-84
2023/08/02 07:12:31;;;;;;;6.10;2.85;;;;;;;;;;5043506;28;20499;-83
2023/08/02 07:14:56;;;;;;;5.38;2.70;;;;;;;;;;5043706;28;20123;-84
2023/08/02 07:17:21;;;;;;;11.50;2.75;;;;;;;;;;5045059;28;20097;-84
2023/08/02 07:19:48;;;;;;;3.80;2.72;;;;;;;;;;5045093;28;20029;-83
2023/08/02 07:22:17;;;;;;;5.88;3.15;;;;;;;;;;5040087;28;20052;-84
2023/08/02 07:24:43;;;;;;;5.07;2.65;;;;;;;;;;5032329;28;20411;-83
2023/08/02 07:27:09;;;;;;;7.65;3.17;;;;;;;;;;5040951;28;20025;-83
2023/08/02 07:29:35;;;;;;;6.93;3.55;;;;;;;;;;5033581;28;20032;-83
2023/08/02 07:32:00;;;;;;;5.07;3.05;;;;;;;;;;5022065;28;20017;-82
2023/08/02 07:34:26;;;;;;;5.28;3.10;;;;;;;;;;5038294;28;20052;-84
2023/08/02 07:36:51;;;;;;;4.88;3.05;;;;;;;;;;5041687;28;20025;-82
2023/08/02 07:39:16;;;;;;;5.32;3.20;;;;;;;;;;5038227;28;20029;-82
2023/08/02 07:41:42;;;;;;;8.38;3.58;;;;;;;;;;5039660;28;20059;-83
2023/08/02 07:44:07;;;;;;;4.63;2.97;;;;;;;;;;5037156;28;20040;-83
2023/08/02 07:46:32;;;;;;;4.82;3.03;;;;;;;;;;5039113;28;20032;-84
2023/08/02 07:48:58;;;;;;;5.72;3.33;;;;;;;;;;5038037;28;20037;-83
2023/08/02 07:51:23;;;;;;;4.75;2.83;;;;;;;;;;5040017;28;20066;-84
2023/08/02 07:53:49;;;;;;;4.75;3.25;;;;;;;;;;5033222;28;20133;-83
2023/08/02 07:56:14;;;;;;;4.53;2.65;;;;;;;;;;5024205;28;20025;-82
2023/08/02 07:58:40;;;;;;;8.05;3.90;;;;;;;;;;5022083;28;20029;-83
2023/08/02 08:01:09;;;;;;;5.50;3.17;;;;;;;;;;5039325;28;20061;-83
2023/08/02 08:03:35;;;;;;;5.20;3.13;;;;;;;;;;5035232;28;20042;-83
2023/08/02 08:06:08;;;;;;;4.95;2.72;;;;;;;;;;5040005;28;20028;-83
2023/08/02 08:08:33;;;;;;;3.08;2.25;;;;;;;;;;5037722;28;20091;-83
2023/08/02 08:10:58;;;;;;;4.75;2.53;;;;;;;;;;5038178;28;20030;-83
2023/08/02 08:13:24;;;;;;;3.70;2.67;;;;;;;;;;5017544;28;20382;-83
2023/08/02 08:15:49;;;;;;;3.88;2.28;;;;;;;;;;5022558;28;20591;-84
2023/08/02 08:18:14;;;;;;;4.90;2.50;;;;;;;;;;5038313;28;20049;-83
2023/08/02 08:20:40;;;;;;;3.63;2.72;;;;;;;;;;5037436;28;20036;-83
2023/08/02 08:23:05;;;;;;;3.70;2.03;;;;;;;;;;5038522;28;20498;-83
2023/08/02 08:25:31;;;;;;;4.85;2.63;;;;;;;;;;5037249;28;20036;-82
2023/08/02 08:27:56;;;;;;;4.97;2.50;;;;;;;;;;5038793;28;20040;-83
2023/08/02 08:30:22;;;;;;;4.80;2.25;;;;;;;;;;5017645;28;20586;-83
2023/08/02 08:32:47;;;;;;;5.65;2.42;;;;;;;;;;5031639;28;20097;-82
2023/08/02 08:35:12;;;;;;;4.85;2.40;;;;;;;;;;5036021;28;20028;-82
2023/08/02 08:37:38;;;;;;;6.55;2.70;;;;;;;;;;5039610;28;20030;-84
2023/08/02 08:40:04;;;;;;;2.38;2.08;;;;;;;;;;5034971;28;20028;-83
2023/08/02 08:42:29;;;;;;;5.43;2.67;;;;;;;;;;5016822;28;20025;-83
2023/08/02 08:44:56;;;;;;;6.65;2.60;;;;;;;;;;5027077;28;20021;-83
2023/08/02 08:47:22;;;;;;;5.07;2.83;;;;;;;;;;5038278;28;20495;-84
2023/08/02 08:49:47;;;;;;;4.78;2.33;;;;;;;;;;5034043;28;20088;-84
2023/08/02 08:52:14;;;;;;;3.78;2.30;;;;;;;;;;5039788;28;20025;-83
2023/08/02 08:54:42;;;;;;;3.67;2.40;;;;;;;;;;5033039;28;20037;-84
2023/08/02 08:57:09;;;;;;;3.15;2.20;;;;;;;;;;5038997;28;20032;-84
2023/08/02 08:59:35;;;;;;;3.47;2.35;;;;;;;;;;5034552;28;20025;-83
2023/08/02 09:02:01;;;;;;;2.92;2.15;;;;;;;;;;5016122;28;20031;-83
2023/08/02 09:04:29;;;;;;;4.10;2.17;;;;;;;;;;5036855;28;20033;-84
2023/08/02 09:06:54;;;;;;;3.47;2.20;;;;;;;;;;5040390;28;20025;-84
2023/08/02 09:09:20;;;;;;;3.70;2.30;;;;;;;;;;5040207;28;20360;-84
2023/08/02 09:11:45;;;;;;;3.60;2.30;;;;;;;;;;5037511;28;20041;-82
2023/08/02 09:14:15;;;;;;;3.40;2.55;;;;;;;;;;5036996;28;20034;-84
2023/08/02 09:17:01;;;;;;;4.15;2.60;;;;;;;;;;5023748;28;20387;-84
2023/08/02 09:19:31;;;;;;;3.47;2.45;;;;;;;;;;5040987;28;20123;-83
2023/08/02 09:22:16;;;;;;;3.53;2.35;;;;;;;;;;5022632;28;20049;-84
2023/08/02 09:24:44;;;;;;;2.70;2.05;;;;;;;;;;5039946;28;20032;-85
2023/08/02 09:27:15;;;;;;;5.63;2.30;;;;;;;;;;5036396;28;20170;-85
2023/08/02 09:29:46;;;;;;;3.80;2.30;;;;;;;;;;5041496;28;20458;-84
2023/08/02 09:32:12;;;;;;;4.57;2.78;;;;;;;;;;5041900;28;20028;-85
2023/08/02 09:34:43;;;;;;;3.78;2.45;;;;;;;;;;5040841;28;20071;-85
2023/08/02 09:37:10;;;;;;;3.28;2.03;;;;;;;;;;5039075;28;20038;-85
2023/08/02 09:39:36;;;;;;;2.85;2.28;;;;;;;;;;5040965;28;20083;-84
2023/08/02 09:42:12;;;;;;;2.80;2.30;;;;;;;;;;5041377;28;20022;-85
2023/08/02 09:44:41;;;;;;;2.50;2.20;;;;;;;;;;5040291;28;20089;-84
2023/08/02 09:47:12;;;;;;;3.92;2.65;;;;;;;;;;5043494;28;20120;-84
2023/08/02 09:49:39;;;;;;;5.53;2.63;;;;;;;;;;5041433;28;20071;-84
2023/08/02 09:52:05;;;;;;;3.60;2.38;;;;;;;;;;5039448;28;20037;-84
2023/08/02 09:54:31;;;;;;;6.93;2.55;;;;;;;;;;5041743;28;20033;-84
2023/08/02 09:56:57;;;;;;;3.83;2.72;;;;;;;;;;5037663;28;20040;-84
2023/08/02 09:59:26;;;;;;;4.53;2.80;;;;;;;;;;5039268;28;20114;-84
2023/08/02 10:01:52;;;;;;;3.58;2.70;;;;;;;;;;5040855;28;20033;-84
2023/08/02 10:04:20;;;;;;;3.72;2.40;;;;;;;;;;5028711;28;20022;-84
2023/08/02 10:07:12;;;;;;;2.75;2.38;;;;;;;;;;5042712;28;20026;-84
2023/08/02 10:09:41;;;;;;;3.60;2.67;;;;;;;;;;5037066;28;20041;-84
2023/08/02 10:12:09;;;;;;;7.43;3.03;;;;;;;;;;5033018;28;20079;-84
2023/08/02 10:14:35;;;;;;;4.07;2.92;;;;;;;;;;5039086;28;20025;-84
2023/08/02 10:17:01;;;;;;;6.70;3.13;;;;;;;;;;5036571;28;20029;-83
2023/08/02 10:19:30;;;;;;;4.38;2.72;;;;;;;;;;5036083;28;20037;-83
2023/08/02 10:22:01;;;;;;;4.35;2.58;;;;;;;;;;5036954;28;20202;-84
2023/08/02 10:24:27;;;;;;;7.28;2.80;;;;;;;;;;5016368;28;20042;-83
2023/08/02 10:26:58;;;;;;;4.68;2.72;;;;;;;;;;5039693;28;20032;-84
2023/08/02 10:29:28;;;;;;;5.38;2.92;;;;;;;;;;5038186;28;20033;-85
2023/08/02 10:31:54;;;;;;;4.60;3.15;;;;;;;;;;5038275;28;20029;-85
2023/08/02 10:34:34;;;;;;;4.03;2.42;;;;;;;;;;5034121;28;20411;-84
2023/08/02 10:37:00;;;;;;;5.22;2.72;;;;;;;;;;5037116;28;20420;-84
2023/08/02 10:39:47;;;;;;;4.90;2.65;;;;;;;;;;5032561;28;20057;-83
2023/08/02 10:42:13;;;;;;;5.55;3.25;;;;;;;;;;5031815;28;20026;-84
2023/08/02 10:44:56;;;;;;;5.35;2.90;;;;;;;;;;5031049;28;20041;-84
2023/08/02 10:47:28;;;;;;;5.30;2.58;;;;;;;;;;5029483;28;20029;-84
2023/08/02 10:49:54;;;;;;;4.03;2.85;;;;;;;;;;5037720;28;20037;-85
2023/08/02 10:52:30;;;;;;;4.63;3.13;;;;;;;;;;5032372;28;20044;-86
2023/08/02 10:55:18;;;;;;;4.45;3.15;;;;;;;;;;5041269;28;20107;-85
2023/08/02 10:57:55;;;;;;;4.70;3.20;;;;;;;;;;5038046;28;20026;-84
2023/08/02 11:00:25;;;;;;;5.05;2.70;;;;;;;;;;5019703;28;20029;-85
2023/08/02 11:02:52;;;;;;;5.50;3.15;;;;;;;;;;5037806;28;20025;-84
2023/08/02 11:05:41;;;;;;;5.88;3.38;;;;;;;;;;5022355;28;20029;-85
2023/08/02 11:08:08;;;;;;;6.65;3.22;;;;;;;;;;5037952;28;20028;-83
2023/08/02 11:10:49;;;;;;;5.60;3.30;;;;;;;;;;5037180;28;20429;-84
2023/08/02 11:13:15;;;;;;;6.40;2.80;;;;;;;;;;5014075;28;20021;-85
2023/08/02 11:15:40;;;;;;;3.95;2.88;;;;;;;;;;5020104;28;20046;-84
2023/08/02 11:18:05;;;;;;;4.47;2.75;;;;;;;;;;5036598;28;20491;-83
2023/08/02 11:20:35;;;;;;;4.90;3.00;;;;;;;;;;5029691;28;20736;-84
2023/08/02 11:23:00;;;;;;;5.75;3.40;;;;;;;;;;5037609;28;20036;-84
2023/08/02 11:25:25;;;;;;;5.00;2.83;;;;;;;;;;5032885;28;20041;-84
2023/08/02 11:28:03;;;;;;;5.53;3.15;;;;;;;;;;5038789;28;20032;-83
2023/08/02 11:30:29;;;;;;;5.28;3.17;;;;;;;;;;5030512;28;20037;-83
2023/08/02 11:32:55;;;;;;;5.05;3.55;;;;;;;;;;5035520;28;20021;-83
2023/08/02 11:35:21;;;;;;;6.40;3.42;;;;;;;;;;5036794;28;20025;-83
2023/08/02 11:37:47;;;;;;;4.90;3.28;;;;;;;;;;5038624;28;20544;-83
2023/08/02 11:40:13;;;;;;;5.55;3.10;;;;;;;;;;5037161;28;20104;-84
2023/08/02 11:42:50;;;;;;;5.25;2.92;;;;;;;;;;5029889;28;20108;-84
2023/08/02 11:45:36;;;;;;;4.20;3.00;;;;;;;;;;5029499;28;20117;-84
2023/08/02 11:48:02;;;;;;;4.60;3.00;;;;;;;;;;5037915;28;20029;-83
2023/08/02 11:50:28;;;;;;;5.18;3.47;;;;;;;;;;5037236;28;20506;-84
2023/08/02 11:53:13;;;;;;;7.93;3.67;;;;;;;;;;5035600;28;20025;-84
2023/08/02 11:55:39;;;;;;;5.93;2.85;;;;;;;;;;5036815;28;20101;-82
2023/08/02 11:58:06;;;;;;;5.03;2.83;;;;;;;;;;5038394;28;20084;-84
2023/08/02 12:00:36;;;;;;;4.35;2.58;;;;;;;;;;5037084;28;20033;-83
2023/08/02 12:03:12;;;;;;;4.28;3.10;;;;;;;;;;5036579;28;20502;-84
2023/08/02 12:05:38;;;;;;;3.75;2.70;;;;;;;;;;5037910;28;20394;-84
2023/08/02 12:08:11;;;;;;;4.30;2.45;;;;;;;;;;5034309;28;20049;-84
2023/08/02 12:10:40;;;;;;;3.42;2.30;;;;;;;;;;5036110;28;20570;-84
2023/08/02 12:13:15;;;;;;;5.38;2.50;;;;;;;;;;5013460;28;20029;-83
2023/08/02 12:16:05;;;;;;;4.60;2.67;;;;;;;;;;5014646;28;20025;-84
2023/08/02 12:18:30;;;;;;;4.43;2.70;;;;;;;;;;5025453;28;20026;-84
2023/08/02 12:20:56;;;;;;;4.00;2.65;;;;;;;;;;5035254;28;20035;-84
2023/08/02 12:23:32;;;;;;;4.57;2.70;;;;;;;;;;5035604;28;20063;-84
2023/08/02 12:25:57;;;;;;;3.30;2.30;;;;;;;;;;5035267;28;20064;-84
2023/08/02 12:28:23;;;;;;;2.80;2.10;;;;;;;;;;5039809;28;20391;-84
2023/08/02 12:31:01;;;;;;;4.70;2.35;;;;;;;;;;5037588;28;20030;-84
2023/08/02 12:33:26;;;;;;;6.78;2.63;;;;;;;;;;5032743;28;20029;-84
2023/08/02 12:35:51;;;;;;;3.53;2.30;;;;;;;;;;5034593;28;20094;-84
2023/08/02 12:38:17;;;;;;;3.50;1.90;;;;;;;;;;5037819;28;20085;-85
2023/08/02 12:40:42;;;;;;;4.65;2.13;;;;;;;;;;5039658;28;20288;-85
2023/08/02 12:43:08;;;;;;;3.08;2.25;;;;;;;;;;5040232;28;20079;-84
2023/08/02 12:45:34;;;;;;;3.15;2.10;;;;;;;;;;5038867;28;20403;-84
2023/08/02 12:47:59;;;;;;;3.67;2.50;;;;;;;;;;5032676;28;20029;-84
2023/08/02 12:50:24;;;;;;;3.80;2.40;;;;;;;;;;5042634;28;20094;-84
2023/08/02 12:52:50;;;;;;;4.00;2.30;;;;;;;;;;5021618;28;20018;-84
2023/08/02 12:55:15;;;;;;;3.33;2.33;;;;;;;;;;5040429;28;20270;-83
2023/08/02 12:57:40;;;;;;;2.63;2.00;;;;;;;;;;5019945;28;20025;-84
2023/08/02 13:00:06;;;;;;;4.47;2.10;;;;;;;;;;5030409;28;20707;-84
2023/08/02 13:02:32;;;;;;;2.45;1.98;;;;;;;;;;5043510;28;20487;-84
2023/08/02 13:04:57;;;;;;;3.72;2.10;;;;;;;;;;5022088;28;20026;-84
2023/08/02 13:07:22;;;;;;;4.00;2.30;;;;;;;;;;5025611;28;20051;-83
2023/08/02 13:09:50;;;;;;;3.70;2.25;;;;;;;;;;5038283;28;20097;-84
2023/08/02 13:12:15;;;;;;;3.55;2.10;;;;;;;;;;5041569;28;20056;-84
2023/08/02 13:14:40;;;;;;;4.43;2.00;;;;;;;;;;5040118;28;20033;-84
2023/08/02 13:17:06;;;;;;;4.88;1.80;;;;;;;;;;5031500;28;20121;-84
2023/08/02 13:19:31;;;;;;;3.78;2.20;;;;;;;;;;5032163;28;20120;-84
2023/08/02 13:21:57;;;;;;;2.72;1.80;;;;;;;;;;5015696;28;20064;-84
2023/08/02 13:24:22;;;;;;;5.07;1.92;;;;;;;;;;5038031;28;20021;-84
2023/08/02 13:26:47;;;;;;;4.60;2.03;;;;;;;;;;5042100;28;20259;-83
2023/08/02 13:29:13;;;;;;;3.83;1.77;;;;;;;;;;5043446;28;20120;-84
2023/08/02 13:31:38;;;;;;;4.68;2.08;;;;;;;;;;5041046;28;20031;-85
2023/08/02 13:34:03;;;;;;;2.55;1.77;;;;;;;;;;5035182;28;20022;-83
2023/08/02 13:36:28;;;;;;;3.28;2.25;;;;;;;;;;5024618;28;20052;-83
2023/08/02 13:38:54;;;;;;;2.67;2.08;;;;;;;;;;5034198;28;20025;-84
2023/08/02 13:41:19;;;;;;;3.55;2.25;;;;;;;;;;5038421;28;20040;-84
2023/08/02 13:43:44;;;;;;;3.00;2.20;;;;;;;;;;5039601;28;20025;-85
2023/08/02 13:46:10;;;;;;;3.00;2.15;;;;;;;;;;5044198;28;20044;-84
2023/08/02 13:48:35;;;;;;;3.13;2.10;;;;;;;;;;5021064;28;20033;-84
2023/08/02 13:51:00;;;;;;;3.15;2.20;;;;;;;;;;5040372;28;20032;-84
2023/08/02 13:53:26;;;;;;;2.80;1.90;;;;;;;;;;5039144;28;20044;-84
2023/08/02 13:55:51;;;;;;;2.05;1.70;;;;;;;;;;5038637;28;20063;-83
2023/08/02 13:58:16;;;;;;;3.67;1.63;;;;;;;;;;5025012;28;20108;-84
2023/08/02 14:00:42;;;;;;;2.28;1.77;;;;;;;;;;5046290;28;20033;-84
2023/08/02 14:03:07;;;;;;;3.03;2.00;;;;;;;;;;5039540;28;20025;-83
2023/08/02 14:05:32;;;;;;;5.00;1.90;;;;;;;;;;5046148;28;20025;-84
2023/08/02 14:07:57;;;;;;;5.10;1.88;;;;;;;;;;5026489;28;20047;-84
2023/08/02 14:10:23;;;;;;;2.55;1.70;;;;;;;;;;5035024;28;20078;-83
2023/08/02 14:12:48;;;;;;;3.08;1.70;;;;;;;;;;5020905;28;20108;-84
2023/08/02 14:15:14;;;;;;;1.95;1.70;;;;;;;;;;5033922;28;20037;-83
2023/08/02 14:17:39;;;;;;;1.42;1.25;;;;;;;;;;5039552;28;20045;-82
2023/08/02 14:20:06;;;;;;;2.08;1.52;;;;;;;;;;5035853;28;20048;-84
2023/08/02 14:22:33;;;;;;;1.08;1.00;;;;;;;;;;5040337;28;20029;-84
2023/08/02 14:24:58;;;;;;;2.00;1.48;;;;;;;;;;5036550;28;20080;-83
2023/08/02 14:27:24;;;;;;;1.63;1.30;;;;;;;;;;5010799;28;20025;-83
2023/08/02 14:29:49;;;;;;;2.78;1.40;;;;;;;;;;5015642;28;20120;-84
2023/08/02 14:32:15;;;;;;;4.35;1.40;;;;;;;;;;5038566;28;20029;-84
2023/08/02 14:34:40;;;;;;;4.60;1.95;;;;;;;;;;5037018;28;20026;-84
2023/08/02 14:37:06;;;;;;;2.15;1.33;;;;;;;;;;5038615;28;20036;-83
2023/08/02 14:39:31;;;;;;;3.10;1.55;;;;;;;;;;5029832;28;20188;-84
2023/08/02 14:41:56;;;;;;;3.72;1.67;;;;;;;;;;5036682;28;20096;-83
2023/08/02 14:44:22;;;;;;;2.40;1.50;;;;;;;;;;5032463;28;20052;-84